createdAt,value
2023-04-18T00:00:40.268Z,4.86
2023-04-18T00:01:42.073Z,4.86
2023-04-18T00:02:44.105Z,4.85
2023-04-18T00:03:47.211Z,4.84
2023-04-18T00:04:50.410Z,4.82
2023-04-18T00:05:54.481Z,4.81
2023-04-18T00:06:56.021Z,4.80
2023-04-18T00:07:57.434Z,4.79
2023-04-18T00:09:01.483Z,4.78
2023-04-18T00:10:06.482Z,4.79
2023-04-18T00:11:08.036Z,4.78
2023-04-18T00:12:10.305Z,4.76
2023-04-18T00:13:12.119Z,4.76
2023-04-18T00:14:13.746Z,4.73
2023-04-18T00:15:15.873Z,4.73
2023-04-18T00:16:17.334Z,4.68
2023-04-18T00:17:20.425Z,4.71
2023-04-18T00:18:22.110Z,4.68
2023-04-18T00:19:23.716Z,4.68
2023-04-18T00:20:28.105Z,4.67
2023-04-18T00:21:30.287Z,4.66
2023-04-18T00:22:31.858Z,4.64
2023-04-18T00:23:34.484Z,4.63
2023-04-18T00:24:35.947Z,4.61
2023-04-18T00:25:37.497Z,4.60
2023-04-18T00:26:38.931Z,4.59
2023-04-18T00:27:41.079Z,4.59
2023-04-18T00:28:42.566Z,4.57
2023-04-18T00:29:45.226Z,4.56
2023-04-18T00:30:47.152Z,4.55
2023-04-18T00:31:48.629Z,4.54
2023-04-18T00:32:50.233Z,4.52
2023-04-18T00:33:52.878Z,4.52
2023-04-18T00:34:54.463Z,4.50
2023-04-18T00:35:58.345Z,4.49
2023-04-18T00:37:02.126Z,4.48
2023-04-18T00:38:03.579Z,4.46
2023-04-18T00:39:05.049Z,4.44
2023-04-18T00:40:06.951Z,4.43
2023-04-18T00:41:10.871Z,4.42
2023-04-18T00:42:12.549Z,4.40
2023-04-18T00:43:16.726Z,4.39
2023-04-18T00:44:18.218Z,4.35
2023-04-18T00:45:19.808Z,4.32
2023-04-18T00:46:21.347Z,4.28
2023-04-18T00:47:23.146Z,4.28
2023-04-18T00:48:24.675Z,4.26
2023-04-18T00:49:26.922Z,4.27
2023-04-18T00:50:28.448Z,4.25
2023-04-18T00:51:30.502Z,4.25
2023-04-18T00:52:36.103Z,4.24
2023-04-18T00:53:37.801Z,4.24
2023-04-18T00:54:39.793Z,4.24
2023-04-18T00:55:41.399Z,4.23
2023-04-18T00:56:43.059Z,4.22
2023-04-18T00:57:44.562Z,4.22
2023-04-18T00:58:46.051Z,4.21
2023-04-18T00:59:47.733Z,4.19
2023-04-18T01:00:49.389Z,4.16
2023-04-18T01:01:51.131Z,4.15
2023-04-18T01:02:54.010Z,4.12
2023-04-18T01:03:55.820Z,4.11
2023-04-18T01:04:58.696Z,4.08
2023-04-18T01:06:01.090Z,4.06
2023-04-18T01:07:03.266Z,4.04
2023-04-18T01:08:04.780Z,4.04
2023-04-18T01:09:12.104Z,4.01
2023-04-18T01:10:15.866Z,4.00
2023-04-18T01:11:17.357Z,3.99
2023-04-18T01:12:21.545Z,3.98
2023-04-18T01:13:23.171Z,3.96
2023-04-18T01:14:24.674Z,3.94
2023-04-18T01:15:26.136Z,3.94
2023-04-18T01:16:28.452Z,3.92
2023-04-18T01:17:30.460Z,3.91
2023-04-18T01:18:32.359Z,3.90
2023-04-18T01:19:36.131Z,3.89
2023-04-18T01:20:41.312Z,3.88
2023-04-18T01:21:46.090Z,3.87
2023-04-18T01:22:48.484Z,3.87
2023-04-18T01:23:50.673Z,3.86
2023-04-18T01:24:52.117Z,3.85
2023-04-18T01:25:53.511Z,3.85
2023-04-18T01:26:55.201Z,3.84
2023-04-18T01:27:58.782Z,3.84
2023-04-18T01:29:02.183Z,3.82
2023-04-18T01:30:05.209Z,3.82
2023-04-18T01:31:06.660Z,3.82
2023-04-18T01:32:11.280Z,3.79
2023-04-18T01:33:12.727Z,3.78
2023-04-18T01:34:16.811Z,3.74
2023-04-18T01:35:18.420Z,3.73
2023-04-18T01:36:20.122Z,3.72
2023-04-18T01:37:21.817Z,3.69
2023-04-18T01:38:23.386Z,3.68
2023-04-18T01:39:24.838Z,3.65
2023-04-18T01:40:28.589Z,3.64
2023-04-18T01:41:32.538Z,3.62
2023-04-18T01:42:34.401Z,3.61
2023-04-18T01:43:36.098Z,3.59
2023-04-18T01:44:38.355Z,3.58
2023-04-18T01:45:39.921Z,3.58
2023-04-18T01:46:43.554Z,3.56
2023-04-18T01:47:45.177Z,3.55
2023-04-18T01:48:46.604Z,3.53
2023-04-18T01:49:48.452Z,3.52
2023-04-18T01:50:50.275Z,3.50
2023-04-18T01:51:51.706Z,3.48
2023-04-18T01:52:55.659Z,3.47
2023-04-18T01:53:57.123Z,3.46
2023-04-18T01:54:59.507Z,3.45
2023-04-18T01:56:01.079Z,3.42
2023-04-18T01:57:03.376Z,3.40
2023-04-18T01:58:05.051Z,3.38
2023-04-18T01:59:06.658Z,3.37
2023-04-18T02:00:08.597Z,3.36
2023-04-18T02:01:21.086Z,3.34
2023-04-18T02:02:22.619Z,3.33
2023-04-18T02:03:24.790Z,3.32
2023-04-18T02:04:27.272Z,3.30
2023-04-18T02:05:28.783Z,3.29
2023-04-18T02:06:30.804Z,3.28
2023-04-18T02:07:33.419Z,3.28
2023-04-18T02:08:35.931Z,3.26
2023-04-18T02:09:39.347Z,3.26
2023-04-18T02:10:41.413Z,3.25
2023-04-18T02:11:42.824Z,3.24
2023-04-18T02:12:44.467Z,3.24
2023-04-18T02:13:46.030Z,3.23
2023-04-18T02:14:50.952Z,3.22
2023-04-18T02:15:53.640Z,3.22
2023-04-18T02:16:55.183Z,3.23
2023-04-18T02:17:56.825Z,3.21
2023-04-18T02:18:58.352Z,3.22
2023-04-18T02:19:59.859Z,3.20
2023-04-18T02:21:01.969Z,3.21
2023-04-18T02:22:03.390Z,3.21
2023-04-18T02:23:06.113Z,3.19
2023-04-18T02:24:07.509Z,3.19
2023-04-18T02:25:09.263Z,3.19
2023-04-18T02:26:10.920Z,3.17
2023-04-18T02:27:12.481Z,3.16
2023-04-18T02:28:16.239Z,3.16
2023-04-18T02:29:17.747Z,3.16
2023-04-18T02:30:19.242Z,3.15
2023-04-18T02:31:20.778Z,3.14
2023-04-18T02:32:22.240Z,3.14
2023-04-18T02:33:23.720Z,3.13
2023-04-18T02:34:26.652Z,3.14
2023-04-18T02:35:29.150Z,3.14
2023-04-18T02:36:31.009Z,3.14
2023-04-18T02:37:32.456Z,3.14
2023-04-18T02:38:33.859Z,3.12
2023-04-18T02:39:35.480Z,3.09
2023-04-18T02:40:36.908Z,3.07
2023-04-18T02:41:39.396Z,3.04
2023-04-18T02:42:43.156Z,3.04
2023-04-18T02:43:48.031Z,3.02
2023-04-18T02:44:51.085Z,3.03
2023-04-18T02:45:52.965Z,3.02
2023-04-18T02:46:54.634Z,3.02
2023-04-18T02:47:56.802Z,3.02
2023-04-18T02:48:58.565Z,3.02
2023-04-18T02:50:00.241Z,3.03
2023-04-18T02:51:06.302Z,3.03
2023-04-18T02:52:09.816Z,3.03
2023-04-18T02:53:11.378Z,3.01
2023-04-18T02:54:30.652Z,3.02
2023-04-18T02:55:40.612Z,3.01
2023-04-18T02:56:42.855Z,3.01
2023-04-18T02:57:57.008Z,3.00
2023-04-18T02:59:32.162Z,3.01
2023-04-18T03:00:34.289Z,3.01
2023-04-18T03:01:53.789Z,3.01
2023-04-18T03:02:57.243Z,3.01
2023-04-18T03:04:11.346Z,3.01
2023-04-18T03:05:17.368Z,3.01
2023-04-18T03:06:19.143Z,3.02
2023-04-18T03:07:22.104Z,3.02
2023-04-18T03:08:25.734Z,3.02
2023-04-18T03:09:27.574Z,3.02
2023-04-18T03:10:33.862Z,3.00
2023-04-18T03:11:35.598Z,3.01
2023-04-18T03:12:37.179Z,3.01
2023-04-18T03:13:39.181Z,3.01
2023-04-18T03:14:40.875Z,3.01
2023-04-18T03:15:42.488Z,3.00
2023-04-18T03:16:44.998Z,3.01
2023-04-18T03:17:50.423Z,2.99
2023-04-18T03:18:56.368Z,2.99
2023-04-18T03:19:58.162Z,2.98
2023-04-18T03:22:03.567Z,2.96
2023-04-18T03:23:05.457Z,2.95
2023-04-18T03:24:07.127Z,2.96
2023-04-18T03:25:12.313Z,2.94
2023-04-18T03:26:17.640Z,2.94
2023-04-18T03:27:20.574Z,2.91
2023-04-18T03:28:22.703Z,2.93
2023-04-18T03:29:24.766Z,2.91
2023-04-18T03:30:28.193Z,2.90
2023-04-18T03:31:33.450Z,2.89
2023-04-18T03:32:36.428Z,2.88
2023-04-18T03:33:39.338Z,2.88
2023-04-18T03:34:44.559Z,2.88
2023-04-18T03:35:46.438Z,2.87
2023-04-18T03:36:48.324Z,2.86
2023-04-18T03:37:51.768Z,2.84
2023-04-18T03:39:00.794Z,2.84
2023-04-18T03:40:02.388Z,2.84
2023-04-18T03:41:05.132Z,2.83
2023-04-18T03:42:09.382Z,2.85
2023-04-18T03:43:13.929Z,2.83
2023-04-18T03:44:17.654Z,2.84
2023-04-18T03:45:20.003Z,2.83
2023-04-18T03:46:24.642Z,2.83
2023-04-18T03:47:29.481Z,2.82
2023-04-18T03:48:35.885Z,2.83
2023-04-18T03:49:41.363Z,2.83
2023-04-18T03:50:43.250Z,2.82
2023-04-18T03:51:52.017Z,2.81
2023-04-18T03:52:53.670Z,2.80
2023-04-18T03:53:55.210Z,2.79
2023-04-18T03:54:57.947Z,2.78
2023-04-18T03:56:04.775Z,2.76
2023-04-18T03:57:26.796Z,2.76
2023-04-18T03:58:28.415Z,2.75
2023-04-18T03:59:30.921Z,2.77
2023-04-18T04:00:32.423Z,2.77
2023-04-18T04:01:39.945Z,2.77
2023-04-18T04:02:41.606Z,2.76
2023-04-18T04:03:47.346Z,2.77
2023-04-18T04:04:49.722Z,2.77
2023-04-18T04:05:51.420Z,2.77
2023-04-18T04:06:53.301Z,2.77
2023-04-18T04:07:55.018Z,2.76
2023-04-18T04:08:57.763Z,2.75
2023-04-18T04:10:01.187Z,2.74
2023-04-18T04:11:02.885Z,2.74
2023-04-18T04:12:04.719Z,2.73
2023-04-18T04:13:06.989Z,2.73
2023-04-18T04:14:11.329Z,2.73
2023-04-18T04:15:17.701Z,2.74
2023-04-18T04:16:25.616Z,2.73
2023-04-18T04:17:29.483Z,2.73
2023-04-18T04:18:31.413Z,2.73
2023-04-18T04:19:35.420Z,2.72
2023-04-18T04:20:45.446Z,2.72
2023-04-18T04:21:51.815Z,2.73
2023-04-18T04:22:53.838Z,2.72
2023-04-18T04:23:57.001Z,2.71
2023-04-18T04:25:07.560Z,2.70
2023-04-18T04:26:15.066Z,2.70
2023-04-18T04:27:26.903Z,2.67
2023-04-18T04:28:28.717Z,2.67
2023-04-18T04:29:36.123Z,2.67
2023-04-18T04:30:38.223Z,2.65
2023-04-18T04:31:42.120Z,2.66
2023-04-18T04:32:46.908Z,2.65
2023-04-18T04:33:48.901Z,2.65
2023-04-18T04:34:53.640Z,2.65
2023-04-18T04:35:56.434Z,2.65
2023-04-18T04:36:58.819Z,2.64
2023-04-18T04:38:02.146Z,2.64
2023-04-18T04:39:12.833Z,2.65
2023-04-18T04:40:25.547Z,2.64
2023-04-18T04:41:31.630Z,2.65
2023-04-18T04:42:33.467Z,2.65
2023-04-18T04:43:42.753Z,2.65
2023-04-18T04:44:47.210Z,2.65
2023-04-18T04:45:52.505Z,2.65
2023-04-18T04:46:57.593Z,2.67
2023-04-18T04:48:08.619Z,2.67
2023-04-18T04:49:11.550Z,2.68
2023-04-18T04:50:15.513Z,2.68
2023-04-18T04:51:16.941Z,2.70
2023-04-18T04:52:18.508Z,2.71
2023-04-18T04:53:20.689Z,2.72
2023-04-18T04:54:22.457Z,2.72
2023-04-18T04:55:24.522Z,2.76
2023-04-18T04:56:26.256Z,2.77
2023-04-18T04:57:27.719Z,2.79
2023-04-18T04:58:29.738Z,2.81
2023-04-18T04:59:51.320Z,2.85
2023-04-18T05:00:53.614Z,2.88
2023-04-18T05:01:55.461Z,2.90
2023-04-18T05:02:57.663Z,2.94
2023-04-18T05:04:03.836Z,2.98
2023-04-18T05:05:05.971Z,3.01
2023-04-18T05:06:07.673Z,3.04
2023-04-18T05:07:09.348Z,3.07
2023-04-18T05:08:11.321Z,3.11
2023-04-18T05:09:13.564Z,3.15
2023-04-18T05:10:15.202Z,3.18
2023-04-18T05:11:17.022Z,3.20
2023-04-18T05:12:18.539Z,3.25
2023-04-18T05:13:20.530Z,3.28
2023-04-18T05:14:22.006Z,3.31
2023-04-18T05:15:24.318Z,3.35
2023-04-18T05:16:26.289Z,3.38
2023-04-18T05:17:29.293Z,3.39
2023-04-18T05:18:32.093Z,3.42
2023-04-18T05:19:38.128Z,3.46
2023-04-18T05:20:40.160Z,3.47
2023-04-18T05:21:41.695Z,3.48
2023-04-18T05:22:43.247Z,3.51
2023-04-18T05:23:47.250Z,3.53
2023-04-18T05:24:49.566Z,3.55
2023-04-18T05:25:51.206Z,3.57
2023-04-18T05:26:53.231Z,3.58
2023-04-18T05:27:57.922Z,3.61
2023-04-18T05:28:59.593Z,3.62
2023-04-18T05:30:01.262Z,3.63
2023-04-18T05:31:02.784Z,3.64
2023-04-18T05:32:04.502Z,3.65
2023-04-18T05:33:06.051Z,3.67
2023-04-18T05:34:09.403Z,3.68
2023-04-18T05:35:12.098Z,3.71
2023-04-18T05:36:13.620Z,3.72
2023-04-18T05:37:15.435Z,3.73
2023-04-18T05:38:16.909Z,3.75
2023-04-18T05:39:18.513Z,3.75
2023-04-18T05:40:19.876Z,3.78
2023-04-18T05:41:21.339Z,3.80
2023-04-18T05:42:23.569Z,3.82
2023-04-18T05:43:25.528Z,3.84
2023-04-18T05:44:27.070Z,3.86
2023-04-18T05:45:28.575Z,3.89
2023-04-18T05:46:30.348Z,3.90
2023-04-18T05:47:33.676Z,3.91
2023-04-18T05:48:37.934Z,3.94
2023-04-18T05:49:39.449Z,3.97
2023-04-18T05:50:40.906Z,3.98
2023-04-18T05:51:45.412Z,3.99
2023-04-18T05:52:48.610Z,4.01
2023-04-18T05:53:50.481Z,4.03
2023-04-18T05:54:52.780Z,4.05
2023-04-18T05:55:56.615Z,4.07
2023-04-18T05:56:58.565Z,4.09
2023-04-18T05:58:00.381Z,4.11
2023-04-18T05:59:05.171Z,4.14
2023-04-18T06:00:12.167Z,4.16
2023-04-18T06:01:18.500Z,4.22
2023-04-18T06:02:23.328Z,4.26
2023-04-18T06:03:27.594Z,4.30
2023-04-18T06:04:29.787Z,4.35
2023-04-18T06:05:32.066Z,4.39
2023-04-18T06:06:41.336Z,4.43
2023-04-18T06:07:43.066Z,4.47
2023-04-18T06:08:47.433Z,4.54
2023-04-18T06:09:52.282Z,4.57
2023-04-18T06:10:53.683Z,4.62
2023-04-18T06:11:55.369Z,4.68
2023-04-18T06:12:56.752Z,4.70
2023-04-18T06:13:58.238Z,4.75
2023-04-18T06:14:59.950Z,4.79
2023-04-18T06:16:01.471Z,4.86
2023-04-18T06:17:02.946Z,4.90
2023-04-18T06:18:04.576Z,4.95
2023-04-18T06:19:06.100Z,5.00
2023-04-18T06:20:08.128Z,5.04
2023-04-18T06:21:09.621Z,5.10
2023-04-18T06:22:11.060Z,5.16
2023-04-18T06:23:12.689Z,5.19
2023-04-18T06:24:14.544Z,5.24
2023-04-18T06:25:16.574Z,5.28
2023-04-18T06:26:18.055Z,5.33
2023-04-18T06:27:30.612Z,5.37
2023-04-18T06:28:33.014Z,5.42
2023-04-18T06:29:36.047Z,5.45
2023-04-18T06:30:38.288Z,5.46
2023-04-18T06:31:39.895Z,5.54
2023-04-18T06:32:41.435Z,5.56
2023-04-18T06:33:42.906Z,5.59
2023-04-18T06:34:44.832Z,5.61
2023-04-18T06:35:46.344Z,5.64
2023-04-18T06:36:47.790Z,5.67
2023-04-18T06:37:49.604Z,5.70
2023-04-18T06:38:51.312Z,5.75
2023-04-18T06:39:52.703Z,5.80
2023-04-18T06:40:54.132Z,5.81
2023-04-18T06:41:56.902Z,5.85
2023-04-18T06:43:02.980Z,5.86
2023-04-18T06:44:04.933Z,5.90
2023-04-18T06:45:06.838Z,5.93
2023-04-18T06:46:08.473Z,5.98
2023-04-18T06:47:10.610Z,6.03
2023-04-18T06:48:12.296Z,6.06
2023-04-18T06:49:13.945Z,6.10
2023-04-18T06:50:15.913Z,6.15
2023-04-18T06:51:17.358Z,6.18
2023-04-18T06:52:21.066Z,6.19
2023-04-18T06:53:22.662Z,6.24
2023-04-18T06:54:24.487Z,6.29
2023-04-18T06:55:25.984Z,6.31
2023-04-18T06:56:27.497Z,6.34
2023-04-18T06:57:28.926Z,6.41
2023-04-18T06:58:30.706Z,6.45
2023-04-18T06:59:32.257Z,6.49
2023-04-18T07:00:33.834Z,6.53
2023-04-18T07:01:41.743Z,6.57
2023-04-18T07:02:43.706Z,6.60
2023-04-18T07:03:46.001Z,6.57
2023-04-18T07:04:48.577Z,6.57
2023-04-18T07:05:51.529Z,6.57
2023-04-18T07:06:53.147Z,6.60
2023-04-18T07:07:54.729Z,6.62
2023-04-18T07:09:01.904Z,6.68
2023-04-18T07:10:03.761Z,6.68
2023-04-18T07:11:06.062Z,6.70
2023-04-18T07:12:07.663Z,6.74
2023-04-18T07:13:09.567Z,6.78
2023-04-18T07:14:12.244Z,6.83
2023-04-18T07:15:14.217Z,6.88
2023-04-18T07:16:15.894Z,6.90
2023-04-18T07:17:17.941Z,6.90
2023-04-18T07:18:30.329Z,6.91
2023-04-18T07:19:36.216Z,6.97
2023-04-18T07:20:37.845Z,7.03
2023-04-18T07:21:40.632Z,7.06
2023-04-18T07:22:42.294Z,7.10
2023-04-18T07:23:43.750Z,7.15
2023-04-18T07:24:45.547Z,7.21
2023-04-18T07:25:47.065Z,7.24
2023-04-18T07:26:48.477Z,7.24
2023-04-18T07:27:50.424Z,7.24
2023-04-18T07:28:52.034Z,7.26
2023-04-18T07:29:53.527Z,7.27
2023-04-18T07:30:56.852Z,7.30
2023-04-18T07:31:59.016Z,7.30
2023-04-18T07:33:00.666Z,7.29
2023-04-18T07:34:02.229Z,7.31
2023-04-18T07:35:04.525Z,7.33
2023-04-18T07:36:06.146Z,7.35
2023-04-18T07:37:07.603Z,7.38
2023-04-18T07:38:09.536Z,7.41
2023-04-18T07:39:11.177Z,7.45
2023-04-18T07:40:12.847Z,7.49
2023-04-18T07:41:14.609Z,7.53
2023-04-18T07:42:16.093Z,7.53
2023-04-18T07:43:18.403Z,7.53
2023-04-18T07:44:21.902Z,7.55
2023-04-18T07:45:23.371Z,7.52
2023-04-18T07:46:24.994Z,7.54
2023-04-18T07:47:29.407Z,7.52
2023-04-18T07:48:31.614Z,7.52
2023-04-18T07:49:34.065Z,7.55
2023-04-18T07:50:35.654Z,7.52
2023-04-18T07:51:37.176Z,7.55
2023-04-18T07:52:39.639Z,7.56
2023-04-18T07:53:41.268Z,7.53
2023-04-18T07:54:42.834Z,7.55
2023-04-18T07:55:45.157Z,7.58
2023-04-18T07:56:46.883Z,7.61
2023-04-18T07:57:50.478Z,7.62
2023-04-18T07:58:53.047Z,7.64
2023-04-18T07:59:54.865Z,7.62
2023-04-18T08:00:56.885Z,7.63
2023-04-18T08:01:58.537Z,7.58
2023-04-18T08:03:00.281Z,7.61
2023-04-18T08:04:02.163Z,7.64
2023-04-18T08:05:04.047Z,7.67
2023-04-18T08:06:06.094Z,7.73
2023-04-18T08:07:07.517Z,7.77
2023-04-18T08:08:11.735Z,7.79
2023-04-18T08:09:13.486Z,7.80
2023-04-18T08:10:15.625Z,7.88
2023-04-18T08:11:17.356Z,7.96
2023-04-18T08:12:18.984Z,8.03
2023-04-18T08:13:21.702Z,8.11
2023-04-18T08:14:23.575Z,8.15
2023-04-18T08:15:25.327Z,8.16
2023-04-18T08:16:27.369Z,8.14
2023-04-18T08:17:29.107Z,8.09
2023-04-18T08:18:30.741Z,8.10
2023-04-18T08:19:32.355Z,8.13
2023-04-18T08:20:35.955Z,8.15
2023-04-18T08:21:37.929Z,8.16
2023-04-18T08:22:50.431Z,8.17
2023-04-18T08:24:01.576Z,8.17
2023-04-18T08:25:05.560Z,8.14
2023-04-18T08:26:07.686Z,8.17
2023-04-18T08:27:09.351Z,8.20
2023-04-18T08:28:10.976Z,8.21
2023-04-18T08:29:12.946Z,8.24
2023-04-18T08:30:15.327Z,8.28
2023-04-18T08:31:17.245Z,8.29
2023-04-18T08:32:18.855Z,8.33
2023-04-18T08:33:21.944Z,8.28
2023-04-18T08:34:23.744Z,8.27
2023-04-18T08:35:25.627Z,8.27
2023-04-18T08:36:27.853Z,8.24
2023-04-18T08:37:30.323Z,8.24
2023-04-18T08:38:31.955Z,8.26
2023-04-18T08:39:33.685Z,8.26
2023-04-18T08:40:35.490Z,8.30
2023-04-18T08:41:45.937Z,8.37
2023-04-18T08:42:50.256Z,8.42
2023-04-18T08:43:52.017Z,8.46
2023-04-18T08:44:54.205Z,8.52
2023-04-18T08:45:58.534Z,8.59
2023-04-18T08:47:03.574Z,8.64
2023-04-18T08:48:05.282Z,8.62
2023-04-18T08:49:07.065Z,8.58
2023-04-18T08:50:09.655Z,8.53
2023-04-18T08:51:11.392Z,8.54
2023-04-18T08:52:14.149Z,8.56
2023-04-18T08:53:17.784Z,8.57
2023-04-18T08:54:20.921Z,8.62
2023-04-18T08:55:22.485Z,8.63
2023-04-18T08:56:27.574Z,8.63
2023-04-18T08:57:31.026Z,8.67
2023-04-18T08:58:33.924Z,8.66
2023-04-18T08:59:36.213Z,8.67
2023-04-18T09:00:37.825Z,8.68
2023-04-18T09:02:01.502Z,8.70
2023-04-18T09:03:06.259Z,8.74
2023-04-18T09:04:08.127Z,8.74
2023-04-18T09:05:21.274Z,8.76
2023-04-18T09:06:22.973Z,8.81
2023-04-18T09:07:31.065Z,8.84
2023-04-18T09:08:32.625Z,8.89
2023-04-18T09:09:43.493Z,8.96
2023-04-18T09:10:47.728Z,9.02
2023-04-18T09:11:49.626Z,9.05
2023-04-18T09:12:52.421Z,9.11
2023-04-18T09:13:56.319Z,9.12
2023-04-18T09:15:20.420Z,9.18
2023-04-18T09:16:23.370Z,9.27
2023-04-18T09:17:32.616Z,9.28
2023-04-18T09:18:34.523Z,9.22
2023-04-18T09:19:36.508Z,9.17
2023-04-18T09:20:43.604Z,9.16
2023-04-18T09:21:48.791Z,9.07
2023-04-18T09:22:57.687Z,9.04
2023-04-18T09:24:15.873Z,8.97
2023-04-18T09:25:29.600Z,8.93
2023-04-18T09:26:37.028Z,8.87
2023-04-18T09:27:38.635Z,8.81
2023-04-18T09:28:41.328Z,8.81
2023-04-18T09:29:46.275Z,8.81
2023-04-18T09:30:48.740Z,8.83
2023-04-18T09:31:57.730Z,8.79
2023-04-18T09:33:00.562Z,8.80
2023-04-18T09:34:03.500Z,8.87
2023-04-18T09:35:05.660Z,8.90
2023-04-18T09:36:20.072Z,8.98
2023-04-18T09:37:21.918Z,9.10
2023-04-18T09:38:38.845Z,9.17
2023-04-18T09:39:42.618Z,9.29
2023-04-18T09:40:44.807Z,9.39
2023-04-18T09:41:58.642Z,9.43
2023-04-18T09:43:00.607Z,9.48
2023-04-18T09:44:12.530Z,9.50
2023-04-18T09:45:16.506Z,9.51
2023-04-18T09:46:18.376Z,9.45
2023-04-18T09:47:19.901Z,9.30
2023-04-18T09:48:21.952Z,9.28
2023-04-18T09:49:23.604Z,9.30
2023-04-18T09:50:25.386Z,9.26
2023-04-18T09:51:27.167Z,9.21
2023-04-18T09:52:32.867Z,9.19
2023-04-18T09:53:38.065Z,9.15
2023-04-18T09:54:39.851Z,9.09
2023-04-18T09:55:42.364Z,9.04
2023-04-18T09:56:44.885Z,9.02
2023-04-18T09:57:47.405Z,9.05
2023-04-18T09:58:50.580Z,9.03
2023-04-18T09:59:55.028Z,9.01
2023-04-18T10:00:57.053Z,9.01
2023-04-18T10:01:59.628Z,9.03
2023-04-18T10:03:06.076Z,9.06
2023-04-18T10:04:08.151Z,9.09
2023-04-18T10:05:11.286Z,9.10
2023-04-18T10:06:15.961Z,9.11
2023-04-18T10:07:17.904Z,9.07
2023-04-18T10:08:19.768Z,9.01
2023-04-18T10:09:22.370Z,8.99
2023-04-18T10:10:27.744Z,8.94
2023-04-18T10:11:30.681Z,8.86
2023-04-18T10:12:32.794Z,8.89
2023-04-18T10:13:34.691Z,8.89
2023-04-18T10:14:37.358Z,8.86
2023-04-18T10:15:39.987Z,8.82
2023-04-18T10:16:45.477Z,8.81
2023-04-18T10:19:20.731Z,8.78
2023-04-18T10:20:23.848Z,8.77
2023-04-18T10:21:28.639Z,8.75
2023-04-18T10:22:30.774Z,8.76
2023-04-18T10:23:32.428Z,8.77
2023-04-18T10:25:00.567Z,8.75
2023-04-18T10:26:03.100Z,8.76
2023-04-18T10:27:05.017Z,8.72
2023-04-18T10:28:09.804Z,8.74
2023-04-18T10:29:11.622Z,8.77
2023-04-18T10:30:13.992Z,8.83
2023-04-18T10:31:16.346Z,8.82
2023-04-18T10:32:19.119Z,8.85
2023-04-18T10:33:42.519Z,8.93
2023-04-18T10:34:46.129Z,8.93
2023-04-18T10:35:57.492Z,8.98
2023-04-18T10:37:05.535Z,9.09
2023-04-18T10:38:16.600Z,9.06
2023-04-18T10:39:22.436Z,9.14
2023-04-18T10:40:34.753Z,9.19
2023-04-18T10:41:48.842Z,9.04
2023-04-18T10:42:51.472Z,8.99
2023-04-18T10:44:06.329Z,8.93
2023-04-18T10:45:24.782Z,8.93
2023-04-18T10:46:32.238Z,8.83
2023-04-18T10:47:34.942Z,8.85
2023-04-18T10:48:39.411Z,8.85
2023-04-18T10:49:52.859Z,8.90
2023-04-18T10:51:13.420Z,8.87
2023-04-18T10:52:15.714Z,8.94
2023-04-18T10:53:17.307Z,8.98
2023-04-18T10:54:35.915Z,9.05
2023-04-18T10:55:40.717Z,9.05
2023-04-18T10:56:51.251Z,9.10
2023-04-18T10:57:56.116Z,9.14
2023-04-18T10:59:01.466Z,9.16
2023-04-18T11:00:04.545Z,9.18
2023-04-18T11:01:06.488Z,9.07
2023-04-18T11:02:14.456Z,9.07
2023-04-18T11:03:16.189Z,9.01
2023-04-18T11:04:18.476Z,8.98
2023-04-18T11:05:22.120Z,8.99
2023-04-18T11:06:23.833Z,9.03
2023-04-18T11:07:36.732Z,9.08
2023-04-18T11:08:38.203Z,9.14
2023-04-18T11:09:39.869Z,9.18
2023-04-18T11:10:41.327Z,9.19
2023-04-18T11:11:44.927Z,9.21
2023-04-18T11:12:49.383Z,9.22
2023-04-18T11:13:58.259Z,9.20
2023-04-18T11:15:01.444Z,9.20
2023-04-18T11:16:03.421Z,9.18
2023-04-18T11:17:21.933Z,9.21
2023-04-18T11:18:23.918Z,9.15
2023-04-18T11:19:25.646Z,9.23
2023-04-18T11:20:27.630Z,9.23
2023-04-18T11:21:30.836Z,9.26
2023-04-18T11:22:32.743Z,9.29
2023-04-18T11:23:34.639Z,9.31
2023-04-18T11:24:36.579Z,9.27
2023-04-18T11:25:40.593Z,9.32
2023-04-18T11:26:44.650Z,9.38
2023-04-18T11:27:47.104Z,9.40
2023-04-18T11:28:54.720Z,9.45
2023-04-18T11:29:56.840Z,9.49
2023-04-18T11:30:59.540Z,9.56
2023-04-18T11:32:01.048Z,9.62
2023-04-18T11:33:06.385Z,9.57
2023-04-18T11:34:07.818Z,9.48
2023-04-18T11:35:10.606Z,9.35
2023-04-18T11:36:12.741Z,9.38
2023-04-18T11:37:15.543Z,9.38
2023-04-18T11:38:17.118Z,9.34
2023-04-18T11:39:19.344Z,9.31
2023-04-18T11:40:21.066Z,9.36
2023-04-18T11:41:25.677Z,9.42
2023-04-18T11:42:28.601Z,9.41
2023-04-18T11:43:30.485Z,9.39
2023-04-18T11:44:33.096Z,9.39
2023-04-18T11:45:36.109Z,9.42
2023-04-18T11:46:40.361Z,9.51
2023-04-18T11:47:46.320Z,9.56
2023-04-18T11:48:50.471Z,9.55
2023-04-18T11:50:02.338Z,9.54
2023-04-18T11:51:04.957Z,9.61
2023-04-18T11:52:11.429Z,9.67
2023-04-18T11:53:13.014Z,9.71
2023-04-18T11:54:33.725Z,9.75
2023-04-18T11:55:35.867Z,9.77
2023-04-18T11:56:46.267Z,9.83
2023-04-18T11:57:51.423Z,9.89
2023-04-18T11:58:53.047Z,9.92
2023-04-18T11:59:56.757Z,9.98
2023-04-18T12:00:58.551Z,10.02
2023-04-18T12:02:14.845Z,10.08
2023-04-18T12:03:18.900Z,10.09
2023-04-18T12:04:21.330Z,10.15
2023-04-18T12:05:30.716Z,10.20
2023-04-18T12:06:52.827Z,10.18
2023-04-18T12:07:54.924Z,10.21
2023-04-18T12:09:00.726Z,10.26
2023-04-18T12:10:05.601Z,10.35
2023-04-18T12:11:07.418Z,10.42
2023-04-18T12:12:11.282Z,10.46
2023-04-18T12:13:12.922Z,10.46
2023-04-18T12:14:21.674Z,10.48
2023-04-18T12:15:27.330Z,10.45
2023-04-18T12:16:33.644Z,10.46
2023-04-18T12:17:38.559Z,10.37
2023-04-18T12:18:41.937Z,10.41
2023-04-18T12:19:46.563Z,10.42
2023-04-18T12:20:50.851Z,10.45
2023-04-18T12:22:00.756Z,10.52
2023-04-18T12:23:03.828Z,10.59
2023-04-18T12:24:16.030Z,10.62
2023-04-18T12:25:27.555Z,10.72
2023-04-18T12:26:29.607Z,10.77
2023-04-18T12:27:51.553Z,10.78
2023-04-18T12:28:56.189Z,10.76
2023-04-18T12:29:58.076Z,10.84
2023-04-18T12:31:01.955Z,10.87
2023-04-18T12:32:03.582Z,10.76
2023-04-18T12:33:05.563Z,10.64
2023-04-18T12:34:07.235Z,10.64
2023-04-18T12:35:08.951Z,10.57
2023-04-18T12:36:11.108Z,10.52
2023-04-18T12:37:12.532Z,10.49
2023-04-18T12:38:14.436Z,10.49
2023-04-18T12:39:16.109Z,10.53
2023-04-18T12:40:19.504Z,10.54
2023-04-18T12:41:21.243Z,10.60
2023-04-18T12:42:22.706Z,10.69
2023-04-18T12:43:24.327Z,10.75
2023-04-18T12:44:25.894Z,10.68
2023-04-18T12:45:29.777Z,10.64
2023-04-18T12:46:31.498Z,10.61
2023-04-18T12:47:33.646Z,10.46
2023-04-18T12:48:35.788Z,10.46
2023-04-18T12:49:39.642Z,10.40
2023-04-18T12:50:41.125Z,10.38
2023-04-18T12:51:43.626Z,10.38
2023-04-18T12:52:45.960Z,10.41
2023-04-18T12:53:47.419Z,10.46
2023-04-18T12:54:49.972Z,10.41
2023-04-18T12:55:51.731Z,10.43
2023-04-18T12:56:53.705Z,10.51
2023-04-18T12:57:55.960Z,10.47
2023-04-18T12:58:57.436Z,10.51
2023-04-18T12:59:59.675Z,10.46
2023-04-18T13:01:01.520Z,10.49
2023-04-18T13:02:03.125Z,10.46
2023-04-18T13:03:04.894Z,10.53
2023-04-18T13:04:12.225Z,10.58
2023-04-18T13:05:15.759Z,10.65
2023-04-18T13:06:17.213Z,10.69
2023-04-18T13:07:19.586Z,10.74
2023-04-18T13:08:22.275Z,10.80
2023-04-18T13:09:23.791Z,10.85
2023-04-18T13:10:27.870Z,10.91
2023-04-18T13:11:32.161Z,11.03
2023-04-18T13:12:33.723Z,11.05
2023-04-18T13:13:35.798Z,11.11
2023-04-18T13:14:37.345Z,11.15
2023-04-18T13:15:40.933Z,11.15
2023-04-18T13:16:43.879Z,11.20
2023-04-18T13:17:46.257Z,11.14
2023-04-18T13:18:47.880Z,11.10
2023-04-18T13:19:49.658Z,11.11
2023-04-18T13:20:51.419Z,11.15
2023-04-18T13:21:53.308Z,11.14
2023-04-18T13:22:54.988Z,11.08
2023-04-18T13:24:03.707Z,11.08
2023-04-18T13:25:05.793Z,11.08
2023-04-18T13:26:08.668Z,11.12
2023-04-18T13:27:10.566Z,11.10
2023-04-18T13:28:19.907Z,11.10
2023-04-18T13:29:21.464Z,11.05
2023-04-18T13:30:22.901Z,11.06
2023-04-18T13:31:28.611Z,11.07
2023-04-18T13:32:33.181Z,11.11
2023-04-18T13:33:37.150Z,11.10
2023-04-18T13:34:39.794Z,11.02
2023-04-18T13:35:41.643Z,11.00
2023-04-18T13:36:43.293Z,10.98
2023-04-18T13:37:46.136Z,10.84
2023-04-18T13:38:47.729Z,10.81
2023-04-18T13:39:49.738Z,10.80
2023-04-18T13:40:58.241Z,10.79
2023-04-18T13:42:20.633Z,10.83
2023-04-18T13:43:28.531Z,10.91
2023-04-18T13:44:31.668Z,11.00
2023-04-18T13:45:34.894Z,10.97
2023-04-18T13:46:42.182Z,10.94
2023-04-18T13:47:44.031Z,11.00
2023-04-18T13:48:48.828Z,11.04
2023-04-18T13:49:50.954Z,11.08
2023-04-18T13:50:54.902Z,11.14
2023-04-18T13:51:59.546Z,11.21
2023-04-18T13:53:01.073Z,11.26
2023-04-18T13:54:02.495Z,11.29
2023-04-18T13:55:06.395Z,11.28
2023-04-18T13:56:07.892Z,11.28
2023-04-18T13:57:12.516Z,11.21
2023-04-18T13:58:14.014Z,11.09
2023-04-18T13:59:15.894Z,11.02
2023-04-18T14:00:21.102Z,11.03
2023-04-18T14:01:22.779Z,10.92
2023-04-18T14:02:24.791Z,10.98
2023-04-18T14:03:26.423Z,10.96
2023-04-18T14:04:28.252Z,11.00
2023-04-18T14:05:31.233Z,11.00